sensor_id;sensor_type;location;lat;lon;timestamp;pressure;altitude;pressure_sealevel;temperature
53412;BMP280;39307;52.870;13.660;2023-03-01T00:02:21;102673.91;;;-2.75
53412;BMP280;39307;52.870;13.660;2023-03-01T00:04:47;102678.31;;;-2.79
53412;BMP280;39307;52.870;13.660;2023-03-01T00:07:13;102678.31;;;-2.79
53412;BMP280;39307;52.870;13.660;2023-03-01T00:09:40;102676.47;;;-2.75
53412;BMP280;39307;52.870;13.660;2023-03-01T00:12:06;102686.97;;;-2.83
53412;BMP280;39307;52.870;13.660;2023-03-01T00:14:33;102686.53;;;-2.93
53412;BMP280;39307;52.870;13.660;2023-03-01T00:16:59;102678.31;;;-3.03
53412;BMP280;39307;52.870;13.660;2023-03-01T00:19:25;102678.34;;;-3.04
53412;BMP280;39307;52.870;13.660;2023-03-01T00:21:51;102684.41;;;-3.07
53412;BMP280;39307;52.870;13.660;2023-03-01T00:24:17;102686.97;;;-3.07
53412;BMP280;39307;52.870;13.660;2023-03-01T00:26:44;102689.63;;;-3.10
53412;BMP280;39307;52.870;13.660;2023-03-01T00:29:10;102684.47;;;-3.08
53412;BMP280;39307;52.870;13.660;2023-03-01T00:31:36;102687.03;;;-3.08
53412;BMP280;39307;52.870;13.660;2023-03-01T00:34:04;102696.50;;;-3.10
53412;BMP280;39307;52.870;13.660;2023-03-01T00:36:34;102696.69;;;-3.16
53412;BMP280;39307;52.870;13.660;2023-03-01T00:39:01;102694.31;;;-3.22
53412;BMP280;39307;52.870;13.660;2023-03-01T00:41:28;102691.00;;;-3.24
53412;BMP280;39307;52.870;13.660;2023-03-01T00:43:54;102690.09;;;-3.23
53412;BMP280;39307;52.870;13.660;2023-03-01T00:46:23;102692.75;;;-3.26
53412;BMP280;39307;52.870;13.660;2023-03-01T00:48:50;102697.97;;;-3.29
53412;BMP280;39307;52.870;13.660;2023-03-01T00:51:20;102690.41;;;-3.32
53412;BMP280;39307;52.870;13.660;2023-03-01T00:53:51;102685.19;;;-3.29
53412;BMP280;39307;52.870;13.660;2023-03-01T00:56:18;102669.78;;;-3.27
53412;BMP280;39307;52.870;13.660;2023-03-01T00:58:44;102661.91;;;-3.23
53412;BMP280;39307;52.870;13.660;2023-03-01T01:01:22;102647.28;;;-3.19
53412;BMP280;39307;52.870;13.660;2023-03-01T01:03:54;102650.53;;;-3.15
53412;BMP280;39307;52.870;13.660;2023-03-01T01:06:28;102647.81;;;-3.10
53412;BMP280;39307;52.870;13.660;2023-03-01T01:08:55;102641.91;;;-3.12
53412;BMP280;39307;52.870;13.660;2023-03-01T01:11:24;102631.66;;;-3.12
53412;BMP280;39307;52.870;13.660;2023-03-01T01:13:51;102619.78;;;-3.15
53412;BMP280;39307;52.870;13.660;2023-03-01T01:16:18;102624.94;;;-3.16
53412;BMP280;39307;52.870;13.660;2023-03-01T01:18:45;102609.03;;;-3.24
53412;BMP280;39307;52.870;13.660;2023-03-01T01:21:15;102620.34;;;-3.31
53412;BMP280;39307;52.870;13.660;2023-03-01T01:23:42;102614.56;;;-3.36
53412;BMP280;39307;52.870;13.660;2023-03-01T01:26:11;102608.63;;;-3.38
53412;BMP280;39307;52.870;13.660;2023-03-01T01:28:38;102619.78;;;-3.39
53412;BMP280;39307;52.870;13.660;2023-03-01T01:31:05;102612.22;;;-3.43
53412;BMP280;39307;52.870;13.660;2023-03-01T01:33:32;102607.22;;;-3.46
53412;BMP280;39307;52.870;13.660;2023-03-01T01:35:58;102608.19;;;-3.48
53412;BMP280;39307;52.870;13.660;2023-03-01T01:38:24;102604.84;;;-3.52
53412;BMP280;39307;52.870;13.660;2023-03-01T01:40:51;102610.03;;;-3.53
53412;BMP280;39307;52.870;13.660;2023-03-01T01:43:36;102610.13;;;-3.56
53412;BMP280;39307;52.870;13.660;2023-03-01T01:46:25;102604.91;;;-3.53
53412;BMP280;39307;52.870;13.660;2023-03-01T01:48:59;102594.66;;;-3.53
53412;BMP280;39307;52.870;13.660;2023-03-01T01:51:31;102602.38;;;-3.55
53412;BMP280;39307;52.870;13.660;2023-03-01T01:54:01;102609.34;;;-3.58
53412;BMP280;39307;52.870;13.660;2023-03-01T01:56:28;102605.09;;;-3.59
53412;BMP280;39307;52.870;13.660;2023-03-01T01:58:55;102610.22;;;-3.59
53412;BMP280;39307;52.870;13.660;2023-03-01T02:01:21;102610.75;;;-3.50
53412;BMP280;39307;52.870;13.660;2023-03-01T02:03:48;102610.41;;;-3.40
53412;BMP280;39307;52.870;13.660;2023-03-01T02:09:06;102613.97;;;-3.69
53412;BMP280;39307;52.870;13.660;2023-03-01T02:11:33;102609.78;;;-3.72
53412;BMP280;39307;52.870;13.660;2023-03-01T02:14:00;102612.28;;;-3.70
53412;BMP280;39307;52.870;13.660;2023-03-01T02:16:26;102617.41;;;-3.70
53412;BMP280;39307;52.870;13.660;2023-03-01T02:18:53;102608.56;;;-3.60
53412;BMP280;39307;52.870;13.660;2023-03-01T02:22:18;102615.88;;;-3.50
53412;BMP280;39307;52.870;13.660;2023-03-01T02:24:48;102623.63;;;-3.77
53412;BMP280;39307;52.870;13.660;2023-03-01T02:27:17;102629.84;;;-3.85
53412;BMP280;39307;52.870;13.660;2023-03-01T02:29:44;102619.78;;;-3.90
53412;BMP280;39307;52.870;13.660;2023-03-01T02:32:11;102621.44;;;-3.89
53412;BMP280;39307;52.870;13.660;2023-03-01T02:34:38;102616.31;;;-3.89
53412;BMP280;39307;52.870;13.660;2023-03-01T02:37:13;102616.41;;;-3.92
53412;BMP280;39307;52.870;13.660;2023-03-01T02:39:53;102613.91;;;-3.93
53412;BMP280;39307;52.870;13.660;2023-03-01T02:42:26;102623.41;;;-3.97
53412;BMP280;39307;52.870;13.660;2023-03-01T02:44:53;102626.94;;;-4.01
53412;BMP280;39307;52.870;13.660;2023-03-01T02:47:19;102621.03;;;-4.03
53412;BMP280;39307;52.870;13.660;2023-03-01T02:49:46;102636.34;;;-4.01
53412;BMP280;39307;52.870;13.660;2023-03-01T02:52:45;102626.19;;;-4.04
53412;BMP280;39307;52.870;13.660;2023-03-01T02:55:14;102625.34;;;-4.04
53412;BMP280;39307;52.870;13.660;2023-03-01T02:57:43;102625.25;;;-4.02
53412;BMP280;39307;52.870;13.660;2023-03-01T03:00:16;102625.25;;;-4.00
53412;BMP280;39307;52.870;13.660;2023-03-01T03:02:44;102618.56;;;-4.05
53412;BMP280;39307;52.870;13.660;2023-03-01T03:05:17;102617.69;;;-4.04
53412;BMP280;39307;52.870;13.660;2023-03-01T03:07:45;102622.09;;;-4.09
53412;BMP280;39307;52.870;13.660;2023-03-01T03:10:17;102625.59;;;-4.12
53412;BMP280;39307;52.870;13.660;2023-03-01T03:12:44;102622.19;;;-4.12
53412;BMP280;39307;52.870;13.660;2023-03-01T03:15:11;102619.63;;;-4.12
53412;BMP280;39307;52.870;13.660;2023-03-01T03:17:37;102612.75;;;-4.10
53412;BMP280;39307;52.870;13.660;2023-03-01T03:20:05;102609.38;;;-4.12
53412;BMP280;39307;52.870;13.660;2023-03-01T03:22:32;102607.78;;;-4.15
53412;BMP280;39307;52.870;13.660;2023-03-01T03:24:59;102605.25;;;-4.16
53412;BMP280;39307;52.870;13.660;2023-03-01T03:27:25;102600.16;;;-4.16
53412;BMP280;39307;52.870;13.660;2023-03-01T03:29:51;102594.25;;;-4.18
53412;BMP280;39307;52.870;13.660;2023-03-01T03:32:18;102594.25;;;-4.18
53412;BMP280;39307;52.870;13.660;2023-03-01T03:34:44;102581.47;;;-4.18
53412;BMP280;39307;52.870;13.660;2023-03-01T03:37:10;102580.47;;;-4.14
53412;BMP280;39307;52.870;13.660;2023-03-01T03:39:36;102582.03;;;-4.09
53412;BMP280;39307;52.870;13.660;2023-03-01T03:42:02;102580.28;;;-4.08
53412;BMP280;39307;52.870;13.660;2023-03-01T03:44:28;102581.84;;;-4.03
53412;BMP280;39307;52.870;13.660;2023-03-01T03:46:55;102577.84;;;-4.11
53412;BMP280;39307;52.870;13.660;2023-03-01T03:49:21;102581.38;;;-4.15
53412;BMP280;39307;52.870;13.660;2023-03-01T03:51:47;102570.34;;;-4.17
53412;BMP280;39307;52.870;13.660;2023-03-01T03:54:13;102564.50;;;-4.21
53412;BMP280;39307;52.870;13.660;2023-03-01T03:56:39;102564.53;;;-4.22
53412;BMP280;39307;52.870;13.660;2023-03-01T03:59:05;102567.09;;;-4.22
53412;BMP280;39307;52.870;13.660;2023-03-01T04:01:32;102565.41;;;-4.23
53412;BMP280;39307;52.870;13.660;2023-03-01T04:03:58;102568.00;;;-4.25
53412;BMP280;39307;52.870;13.660;2023-03-01T04:06:24;102568.09;;;-4.28
53412;BMP280;39307;52.870;13.660;2023-03-01T04:08:50;102564.91;;;-4.34
53412;BMP280;39307;52.870;13.660;2023-03-01T04:11:16;102562.50;;;-4.38
53412;BMP280;39307;52.870;13.660;2023-03-01T04:13:42;102560.69;;;-4.35
53412;BMP280;39307;52.870;13.660;2023-03-01T04:16:09;102564.06;;;-4.34
53412;BMP280;39307;52.870;13.660;2023-03-01T04:18:35;102554.66;;;-4.34
53412;BMP280;39307;52.870;13.660;2023-03-01T04:21:01;102552.97;;;-4.33
53412;BMP280;39307;52.870;13.660;2023-03-01T04:23:27;102556.28;;;-4.30
53412;BMP280;39307;52.870;13.660;2023-03-01T04:25:55;102550.19;;;-4.28
53412;BMP280;39307;52.870;13.660;2023-03-01T04:31:15;102563.06;;;-4.31
53412;BMP280;39307;52.870;13.660;2023-03-01T04:33:53;102557.84;;;-4.26
53412;BMP280;39307;52.870;13.660;2023-03-01T04:36:22;102554.53;;;-4.30
53412;BMP280;39307;52.870;13.660;2023-03-01T04:38:49;102562.25;;;-4.31
53412;BMP280;39307;52.870;13.660;2023-03-01T04:41:18;102563.38;;;-4.39
53412;BMP280;39307;52.870;13.660;2023-03-01T04:43:44;102564.41;;;-4.45
53412;BMP280;39307;52.870;13.660;2023-03-01T04:46:16;102555.94;;;-4.47
53412;BMP280;39307;52.870;13.660;2023-03-01T04:48:44;102558.53;;;-4.48
53412;BMP280;39307;52.870;13.660;2023-03-01T04:51:11;102559.41;;;-4.49
53412;BMP280;39307;52.870;13.660;2023-03-01T04:53:37;102555.28;;;-4.53
53412;BMP280;39307;52.870;13.660;2023-03-01T04:56:03;102549.34;;;-4.54
53412;BMP280;39307;52.870;13.660;2023-03-01T04:58:30;102563.03;;;-4.56
53412;BMP280;39307;52.870;13.660;2023-03-01T05:00:56;102562.28;;;-4.60
53412;BMP280;39307;52.870;13.660;2023-03-01T05:03:22;102555.50;;;-4.60
53412;BMP280;39307;52.870;13.660;2023-03-01T05:05:50;102557.19;;;-4.61
53412;BMP280;39307;52.870;13.660;2023-03-01T05:08:17;102564.97;;;-4.64
53412;BMP280;39307;52.870;13.660;2023-03-01T05:10:53;102555.72;;;-4.68
53412;BMP280;39307;52.870;13.660;2023-03-01T05:13:20;102558.09;;;-4.62
53412;BMP280;39307;52.870;13.660;2023-03-01T05:15:53;102551.22;;;-4.60
53412;BMP280;39307;52.870;13.660;2023-03-01T05:18:20;102544.44;;;-4.61
53412;BMP280;39307;52.870;13.660;2023-03-01T05:20:46;102546.97;;;-4.61
53412;BMP280;39307;52.870;13.660;2023-03-01T05:23:13;102541.94;;;-4.62
53412;BMP280;39307;52.870;13.660;2023-03-01T05:25:39;102538.47;;;-4.61
53412;BMP280;39307;52.870;13.660;2023-03-01T05:28:06;102543.50;;;-4.59
53412;BMP280;39307;52.870;13.660;2023-03-01T05:30:34;102545.19;;;-4.58
53412;BMP280;39307;52.870;13.660;2023-03-01T05:33:01;102539.09;;;-4.54
53412;BMP280;39307;52.870;13.660;2023-03-01T05:35:27;102535.16;;;-4.63
53412;BMP280;39307;52.870;13.660;2023-03-01T05:37:54;102529.19;;;-4.64
53412;BMP280;39307;52.870;13.660;2023-03-01T05:40:22;102536.91;;;-4.65
53412;BMP280;39307;52.870;13.660;2023-03-01T05:42:51;102538.47;;;-4.61
53412;BMP280;39307;52.870;13.660;2023-03-01T05:45:18;102538.38;;;-4.59
53412;BMP280;39307;52.870;13.660;2023-03-01T05:47:46;102547.59;;;-4.53
53412;BMP280;39307;52.870;13.660;2023-03-01T05:50:18;102535.75;;;-4.56
53412;BMP280;39307;52.870;13.660;2023-03-01T05:52:46;102540.09;;;-4.58
53412;BMP280;39307;52.870;13.660;2023-03-01T05:55:13;102539.28;;;-4.60
53412;BMP280;39307;52.870;13.660;2023-03-01T05:57:39;102538.53;;;-4.63
53412;BMP280;39307;52.870;13.660;2023-03-01T06:00:09;102548.88;;;-4.67
53412;BMP280;39307;52.870;13.660;2023-03-01T06:02:36;102548.97;;;-4.70
53412;BMP280;39307;52.870;13.660;2023-03-01T06:05:02;102548.19;;;-4.72
53412;BMP280;39307;52.870;13.660;2023-03-01T06:07:28;102543.91;;;-4.72
53412;BMP280;39307;52.870;13.660;2023-03-01T06:09:54;102547.31;;;-4.71
53412;BMP280;39307;52.870;13.660;2023-03-01T06:12:20;102549.72;;;-4.67
53412;BMP280;39307;52.870;13.660;2023-03-01T06:14:46;102544.72;;;-4.70
53412;BMP280;39307;52.870;13.660;2023-03-01T06:17:13;102545.50;;;-4.68
53412;BMP280;39307;52.870;13.660;2023-03-01T06:19:39;102546.25;;;-4.64
53412;BMP280;39307;52.870;13.660;2023-03-01T06:22:05;102553.81;;;-4.61
53412;BMP280;39307;52.870;13.660;2023-03-01T06:24:32;102550.50;;;-4.63
53412;BMP280;39307;52.870;13.660;2023-03-01T06:26:58;102552.25;;;-4.65
53412;BMP280;39307;52.870;13.660;2023-03-01T06:29:24;102547.13;;;-4.65
53412;BMP280;39307;52.870;13.660;2023-03-01T06:31:50;102557.34;;;-4.65
53412;BMP280;39307;52.870;13.660;2023-03-01T06:34:16;102548.84;;;-4.66
53412;BMP280;39307;52.870;13.660;2023-03-01T06:36:42;102557.34;;;-4.65
53412;BMP280;39307;52.870;13.660;2023-03-01T06:39:08;102557.38;;;-4.67
53412;BMP280;39307;52.870;13.660;2023-03-01T06:41:35;102548.88;;;-4.67
53412;BMP280;39307;52.870;13.660;2023-03-01T06:44:01;102562.47;;;-4.65
53412;BMP280;39307;52.870;13.660;2023-03-01T06:46:27;102555.72;;;-4.68
53412;BMP280;39307;52.870;13.660;2023-03-01T06:48:53;102553.16;;;-4.68
53412;BMP280;39307;52.870;13.660;2023-03-01T06:51:19;102556.53;;;-4.66
53412;BMP280;39307;52.870;13.660;2023-03-01T06:53:46;102556.47;;;-4.64
53412;BMP280;39307;52.870;13.660;2023-03-01T06:56:12;102559.81;;;-4.62
53412;BMP280;39307;52.870;13.660;2023-03-01T06:58:38;102560.63;;;-4.60
53412;BMP280;39307;52.870;13.660;2023-03-01T07:01:08;102561.38;;;-4.57
53412;BMP280;39307;52.870;13.660;2023-03-01T07:03:34;102556.94;;;-4.52
53412;BMP280;39307;52.870;13.660;2023-03-01T07:06:01;102567.81;;;-4.46
53412;BMP280;39307;52.870;13.660;2023-03-01T07:08:27;102567.72;;;-4.43
53412;BMP280;39307;52.870;13.660;2023-03-01T07:10:59;102564.31;;;-4.42
53412;BMP280;39307;52.870;13.660;2023-03-01T07:13:26;102565.94;;;-4.39
53412;BMP280;39307;52.870;13.660;2023-03-01T07:15:52;102568.50;;;-4.39
53412;BMP280;39307;52.870;13.660;2023-03-01T07:18:18;102570.00;;;-4.34
53412;BMP280;39307;52.870;13.660;2023-03-01T07:20:44;102566.44;;;-4.29
53412;BMP280;39307;52.870;13.660;2023-03-01T07:23:11;102568.88;;;-4.24
53412;BMP280;39307;52.870;13.660;2023-03-01T07:25:37;102568.78;;;-4.21
53412;BMP280;39307;52.870;13.660;2023-03-01T07:28:03;102568.69;;;-4.18
53412;BMP280;39307;52.870;13.660;2023-03-01T07:30:29;102571.16;;;-4.15
53412;BMP280;39307;52.870;13.660;2023-03-01T07:32:57;102566.78;;;-4.12
53412;BMP280;39307;52.870;13.660;2023-03-01T07:35:26;102554.66;;;-4.07
53412;BMP280;39307;52.870;13.660;2023-03-01T07:37:52;102560.47;;;-4.02
53412;BMP280;39307;52.870;13.660;2023-03-01T07:40:19;102551.69;;;-3.94
53412;BMP280;39307;52.870;13.660;2023-03-01T07:42:45;102553.25;;;-3.90
53412;BMP280;39307;52.870;13.660;2023-03-01T07:45:11;102553.84;;;-3.82
53412;BMP280;39307;52.870;13.660;2023-03-01T07:47:38;102563.66;;;-3.70
53412;BMP280;39307;52.870;13.660;2023-03-01T07:50:04;102556.47;;;-3.59
53412;BMP280;39307;52.870;13.660;2023-03-01T07:52:30;102548.38;;;-3.47
53412;BMP280;39307;52.870;13.660;2023-03-01T07:54:57;102549.06;;;-3.43
53412;BMP280;39307;52.870;13.660;2023-03-01T07:57:23;102548.69;;;-3.32
53412;BMP280;39307;52.870;13.660;2023-03-01T07:59:49;102550.00;;;-3.21
53412;BMP280;39307;52.870;13.660;2023-03-01T08:02:15;102542.72;;;-3.09
53412;BMP280;39307;52.870;13.660;2023-03-01T08:04:42;102543.22;;;-2.99
53412;BMP280;39307;52.870;13.660;2023-03-01T08:07:08;102551.22;;;-2.86
53412;BMP280;39307;52.870;13.660;2023-03-01T08:09:35;102541.44;;;-2.75
53412;BMP280;39307;52.870;13.660;2023-03-01T08:12:01;102546.16;;;-2.64
53412;BMP280;39307;52.870;13.660;2023-03-01T08:14:27;102537.84;;;-2.48
53412;BMP280;39307;52.870;13.660;2023-03-01T08:16:53;102527.03;;;-2.35
53412;BMP280;39307;52.870;13.660;2023-03-01T08:19:19;102531.97;;;-2.09
53412;BMP280;39307;52.870;13.660;2023-03-01T08:21:46;102521.72;;;-1.69
53412;BMP280;39307;52.870;13.660;2023-03-01T08:24:12;102507.44;;;-0.98
53412;BMP280;39307;52.870;13.660;2023-03-01T08:26:38;102510.09;;;-0.63
53412;BMP280;39307;52.870;13.660;2023-03-01T08:29:04;102493.03;;;-0.48
53412;BMP280;39307;52.870;13.660;2023-03-01T08:31:35;102494.22;;;-0.36
53412;BMP280;39307;52.870;13.660;2023-03-01T08:34:04;102498.41;;;-0.17
53412;BMP280;39307;52.870;13.660;2023-03-01T08:36:37;102492.13;;;0.05
53412;BMP280;39307;52.870;13.660;2023-03-01T08:39:04;102474.84;;;0.24
53412;BMP280;39307;52.870;13.660;2023-03-01T08:41:30;102481.44;;;0.46
53412;BMP280;39307;52.870;13.660;2023-03-01T08:43:57;102480.72;;;0.59
53412;BMP280;39307;52.870;13.660;2023-03-01T08:46:23;102482.75;;;0.69
53412;BMP280;39307;52.870;13.660;2023-03-01T08:48:49;102483.03;;;0.80
53412;BMP280;39307;52.870;13.660;2023-03-01T08:51:21;102474.66;;;0.92
53412;BMP280;39307;52.870;13.660;2023-03-01T08:53:49;102472.75;;;0.95
53412;BMP280;39307;52.870;13.660;2023-03-01T08:56:16;102468.91;;;1.02
53412;BMP280;39307;52.870;13.660;2023-03-01T08:58:46;102467.50;;;1.12
53412;BMP280;39307;52.870;13.660;2023-03-01T09:01:15;102460.13;;;1.21
53412;BMP280;39307;52.870;13.660;2023-03-01T09:03:42;102463.38;;;1.25
53412;BMP280;39307;52.870;13.660;2023-03-01T09:06:09;102459.03;;;1.25
53412;BMP280;39307;52.870;13.660;2023-03-01T09:08:39;102459.78;;;1.27
53412;BMP280;39307;52.870;13.660;2023-03-01T09:11:07;102457.63;;;1.35
53412;BMP280;39307;52.870;13.660;2023-03-01T09:13:34;102465.63;;;1.46
53412;BMP280;39307;52.870;13.660;2023-03-01T09:16:05;102458.38;;;1.52
53412;BMP280;39307;52.870;13.660;2023-03-01T09:18:32;102462.09;;;1.62
53412;BMP280;39307;52.870;13.660;2023-03-01T09:21:08;102446.75;;;1.74
53412;BMP280;39307;52.870;13.660;2023-03-01T09:23:37;102450.28;;;1.87
53412;BMP280;39307;52.870;13.660;2023-03-01T09:26:04;102444.88;;;1.92
53412;BMP280;39307;52.870;13.660;2023-03-01T09:28:31;102446.19;;;1.99
53412;BMP280;39307;52.870;13.660;2023-03-01T09:31:01;102452.13;;;2.14
53412;BMP280;39307;52.870;13.660;2023-03-01T09:33:29;102454.94;;;2.25
53412;BMP280;39307;52.870;13.660;2023-03-01T09:36:04;102450.13;;;2.33
53412;BMP280;39307;52.870;13.660;2023-03-01T09:38:31;102447.28;;;2.37
53412;BMP280;39307;52.870;13.660;2023-03-01T09:40:57;102439.63;;;2.50
53412;BMP280;39307;52.870;13.660;2023-03-01T09:46:06;102443.91;;;2.64
53412;BMP280;39307;52.870;13.660;2023-03-01T09:51:26;102436.59;;;2.71
53412;BMP280;39307;52.870;13.660;2023-03-01T09:53:53;102433.81;;;2.74
53412;BMP280;39307;52.870;13.660;2023-03-01T10:02:31;102435.63;;;2.99
53412;BMP280;39307;52.870;13.660;2023-03-01T10:08:41;102427.72;;;3.28
53412;BMP280;39307;52.870;13.660;2023-03-01T10:11:33;102429.63;;;3.39
53412;BMP280;39307;52.870;13.660;2023-03-01T10:14:27;102416.66;;;3.52
53412;BMP280;39307;52.870;13.660;2023-03-01T10:17:18;102420.00;;;3.67
53412;BMP280;39307;52.870;13.660;2023-03-01T10:19:46;102415.09;;;3.88
53412;BMP280;39307;52.870;13.660;2023-03-01T10:22:28;102404.03;;;4.11
53412;BMP280;39307;52.870;13.660;2023-03-01T10:24:56;102405.81;;;4.35
53412;BMP280;39307;52.870;13.660;2023-03-01T10:27:26;102401.97;;;4.53
53412;BMP280;39307;52.870;13.660;2023-03-01T10:30:31;102395.75;;;4.55
53412;BMP280;39307;52.870;13.660;2023-03-01T10:32:58;102386.47;;;4.63
53412;BMP280;39307;52.870;13.660;2023-03-01T10:35:29;102390.50;;;4.92
53412;BMP280;39307;52.870;13.660;2023-03-01T10:38:13;102387.53;;;4.61
53412;BMP280;39307;52.870;13.660;2023-03-01T10:40:55;102386.22;;;4.43
53412;BMP280;39307;52.870;13.660;2023-03-01T10:43:24;102381.53;;;4.36
53412;BMP280;39307;52.870;13.660;2023-03-01T10:45:51;102380.28;;;4.29
53412;BMP280;39307;52.870;13.660;2023-03-01T10:48:24;102380.28;;;4.29
53412;BMP280;39307;52.870;13.660;2023-03-01T10:51:06;102383.50;;;4.20
53412;BMP280;39307;52.870;13.660;2023-03-01T10:53:47;102389.00;;;4.16
53412;BMP280;39307;52.870;13.660;2023-03-01T10:56:15;102385.28;;;4.20
53412;BMP280;39307;52.870;13.660;2023-03-01T10:59:03;102385.28;;;4.20
53412;BMP280;39307;52.870;13.660;2023-03-01T11:01:32;102378.19;;;4.71
53412;BMP280;39307;52.870;13.660;2023-03-01T11:04:10;102369.91;;;4.41
53412;BMP280;39307;52.870;13.660;2023-03-01T11:06:40;102383.00;;;4.28
53412;BMP280;39307;52.870;13.660;2023-03-01T11:09:20;102382.28;;;4.26
53412;BMP280;39307;52.870;13.660;2023-03-01T11:11:55;102378.91;;;4.48
53412;BMP280;39307;52.870;13.660;2023-03-01T11:14:25;102368.16;;;4.42
53412;BMP280;39307;52.870;13.660;2023-03-01T11:17:04;102358.34;;;4.70
53412;BMP280;39307;52.870;13.660;2023-03-01T11:19:31;102369.47;;;4.59
53412;BMP280;39307;52.870;13.660;2023-03-01T11:22:03;102364.09;;;4.50
53412;BMP280;39307;52.870;13.660;2023-03-01T11:24:40;102356.94;;;4.54
53412;BMP280;39307;52.870;13.660;2023-03-01T11:27:29;102362.59;;;4.83
53412;BMP280;39307;52.870;13.660;2023-03-01T11:30:02;102365.97;;;4.96
53412;BMP280;39307;52.870;13.660;2023-03-01T11:35:29;102344.41;;;5.75
53412;BMP280;39307;52.870;13.660;2023-03-01T11:41:08;102338.47;;;6.29
53412;BMP280;39307;52.870;13.660;2023-03-01T11:52:22;102303.31;;;6.89
53412;BMP280;39307;52.870;13.660;2023-03-01T12:01:09;102318.72;;;6.48
53412;BMP280;39307;52.870;13.660;2023-03-01T12:03:58;102311.19;;;6.34
53412;BMP280;39307;52.870;13.660;2023-03-01T12:09:21;102313.53;;;6.27
53412;BMP280;39307;52.870;13.660;2023-03-01T12:12:09;102312.84;;;6.25
53412;BMP280;39307;52.870;13.660;2023-03-01T12:20:14;102304.69;;;6.40
53412;BMP280;39307;52.870;13.660;2023-03-01T12:23:02;102296.63;;;6.32
53412;BMP280;39307;52.870;13.660;2023-03-01T12:25:40;102299.84;;;6.25
53412;BMP280;39307;52.870;13.660;2023-03-01T12:50:21;102254.88;;;6.44
53412;BMP280;39307;52.870;13.660;2023-03-01T12:52:56;102254.63;;;6.58
53412;BMP280;39307;52.870;13.660;2023-03-01T12:58:00;102253.38;;;6.73
53412;BMP280;39307;52.870;13.660;2023-03-01T13:00:45;102253.63;;;6.81
53412;BMP280;39307;52.870;13.660;2023-03-01T13:03:27;102247.19;;;6.85
53412;BMP280;39307;52.870;13.660;2023-03-01T13:06:08;102244.34;;;6.88
53412;BMP280;39307;52.870;13.660;2023-03-01T13:09:03;102236.03;;;6.93
53412;BMP280;39307;52.870;13.660;2023-03-01T13:11:32;102238.53;;;6.95
53412;BMP280;39307;52.870;13.660;2023-03-01T13:16:46;102227.75;;;6.99
53412;BMP280;39307;52.870;13.660;2023-03-01T13:19:20;102225.88;;;6.90
53412;BMP280;39307;52.870;13.660;2023-03-01T13:21:49;102231.22;;;6.89
53412;BMP280;39307;52.870;13.660;2023-03-01T13:24:27;102219.03;;;6.90
53412;BMP280;39307;52.870;13.660;2023-03-01T13:29:52;102221.47;;;7.02
53412;BMP280;39307;52.870;13.660;2023-03-01T13:32:26;102216.84;;;7.05
53412;BMP280;39307;52.870;13.660;2023-03-01T13:35:00;102213.00;;;7.09
53412;BMP280;39307;52.870;13.660;2023-03-01T13:37:29;102214.19;;;7.16
53412;BMP280;39307;52.870;13.660;2023-03-01T13:39:57;102207.13;;;7.27
53412;BMP280;39307;52.870;13.660;2023-03-01T13:42:35;102208.41;;;7.33
53412;BMP280;39307;52.870;13.660;2023-03-01T13:45:03;102199.13;;;7.19
53412;BMP280;39307;52.870;13.660;2023-03-01T13:47:30;102198.00;;;7.13
53412;BMP280;39307;52.870;13.660;2023-03-01T13:50:03;102192.44;;;7.06
53412;BMP280;39307;52.870;13.660;2023-03-01T13:52:51;102193.28;;;7.07
53412;BMP280;39307;52.870;13.660;2023-03-01T13:55:23;102190.53;;;7.08
53412;BMP280;39307;52.870;13.660;2023-03-01T13:57:55;102185.91;;;7.12
53412;BMP280;39307;52.870;13.660;2023-03-01T14:00:34;102193.09;;;7.19
53412;BMP280;39307;52.870;13.660;2023-03-01T14:03:18;102191.47;;;7.27
53412;BMP280;39307;52.870;13.660;2023-03-01T14:06:06;102182.59;;;7.30
53412;BMP280;39307;52.870;13.660;2023-03-01T14:08:36;102181.06;;;7.27
53412;BMP280;39307;52.870;13.660;2023-03-01T14:16:54;102169.41;;;7.22
53412;BMP280;39307;52.870;13.660;2023-03-01T14:19:27;102168.53;;;7.21
53412;BMP280;39307;52.870;13.660;2023-03-01T14:22:13;102161.06;;;7.28
53412;BMP280;39307;52.870;13.660;2023-03-01T14:24:57;102165.78;;;7.14
53412;BMP280;39307;52.870;13.660;2023-03-01T14:27:35;102166.13;;;7.09
53412;BMP280;39307;52.870;13.660;2023-03-01T14:30:13;102158.06;;;7.12
53412;BMP280;39307;52.870;13.660;2023-03-01T14:32:41;102166.13;;;7.09
53412;BMP280;39307;52.870;13.660;2023-03-01T14:35:37;102168.47;;;7.12
53412;BMP280;39307;52.870;13.660;2023-03-01T14:38:03;102164.31;;;7.00
53412;BMP280;39307;52.870;13.660;2023-03-01T14:40:34;102157.94;;;6.93
53412;BMP280;39307;52.870;13.660;2023-03-01T14:43:03;102152.09;;;7.41
53412;BMP280;39307;52.870;13.660;2023-03-01T14:45:35;102152.19;;;7.60
53412;BMP280;39307;52.870;13.660;2023-03-01T14:48:04;102145.00;;;7.23
53412;BMP280;39307;52.870;13.660;2023-03-01T14:50:36;102148.94;;;7.18
53412;BMP280;39307;52.870;13.660;2023-03-01T14:53:25;102152.28;;;6.89
53412;BMP280;39307;52.870;13.660;2023-03-01T14:55:55;102150.44;;;6.80
53412;BMP280;39307;52.870;13.660;2023-03-01T14:58:23;102146.91;;;6.70
53412;BMP280;39307;52.870;13.660;2023-03-01T15:00:58;102145.53;;;6.66
53412;BMP280;39307;52.870;13.660;2023-03-01T15:03:31;102148.75;;;6.59
53412;BMP280;39307;52.870;13.660;2023-03-01T15:06:00;102154.78;;;6.59
53412;BMP280;39307;52.870;13.660;2023-03-01T15:08:27;102150.63;;;6.57
53412;BMP280;39307;52.870;13.660;2023-03-01T15:13:40;102155.53;;;6.50
53412;BMP280;39307;52.870;13.660;2023-03-01T15:16:09;102151.88;;;6.42
53412;BMP280;39307;52.870;13.660;2023-03-01T15:18:36;102144.56;;;6.36
53412;BMP280;39307;52.870;13.660;2023-03-01T15:23:41;102138.06;;;6.31
53412;BMP280;39307;52.870;13.660;2023-03-01T15:26:31;102141.38;;;6.32
53412;BMP280;39307;52.870;13.660;2023-03-01T15:29:00;102153.41;;;6.33
53412;BMP280;39307;52.870;13.660;2023-03-01T15:31:32;102140.84;;;6.07
53412;BMP280;39307;52.870;13.660;2023-03-01T15:34:19;102134.59;;;5.99
53412;BMP280;39307;52.870;13.660;2023-03-01T15:36:47;102133.19;;;5.95
53412;BMP280;39307;52.870;13.660;2023-03-01T15:42:01;102134.59;;;6.10